sensor_id;sensor_type;location;lat;lon;timestamp;pressure;altitude;pressure_sealevel;temperature;humidity
60715;BME280;46564;53.096;8.246;2023-08-08T00:03:18;100989.72;;;11.95;87.02
60715;BME280;46564;53.096;8.246;2023-08-08T00:08:19;100989.72;;;11.95;87.13
60715;BME280;46564;53.096;8.246;2023-08-08T00:13:22;100975.75;;;11.94;87.46
60715;BME280;46564;53.096;8.246;2023-08-08T00:18:23;100969.69;;;11.98;87.82
60715;BME280;46564;53.096;8.246;2023-08-08T00:23:26;100966.22;;;12.01;87.82
60715;BME280;46564;53.096;8.246;2023-08-08T00:28:27;100961.84;;;12.01;88.05
60715;BME280;46564;53.096;8.246;2023-08-08T00:33:29;100959.28;;;12.05;88.52
60715;BME280;46564;53.096;8.246;2023-08-08T00:38:30;100964.53;;;12.06;88.56
60715;BME280;46564;53.096;8.246;2023-08-08T00:43:31;100959.34;;;12.09;88.53
60715;BME280;46564;53.096;8.246;2023-08-08T00:48:33;100959.31;;;12.08;88.84
60715;BME280;46564;53.096;8.246;2023-08-08T00:53:34;100957.59;;;12.11;88.79
60715;BME280;46564;53.096;8.246;2023-08-08T00:58:36;100949.72;;;12.11;88.89
60715;BME280;46564;53.096;8.246;2023-08-08T01:03:38;100941.88;;;12.14;89.04
60715;BME280;46564;53.096;8.246;2023-08-08T01:08:45;100938.44;;;12.17;89.21
60715;BME280;46564;53.096;8.246;2023-08-08T01:13:47;100948.09;;;12.19;89.15
60715;BME280;46564;53.096;8.246;2023-08-08T01:18:49;100938.47;;;12.22;89.19
60715;BME280;46564;53.096;8.246;2023-08-08T01:23:56;100938.47;;;12.22;89.13
60715;BME280;46564;53.096;8.246;2023-08-08T01:29:02;100934.09;;;12.19;89.09
60715;BME280;46564;53.096;8.246;2023-08-08T01:34:04;100933.13;;;12.14;89.18
60715;BME280;46564;53.096;8.246;2023-08-08T01:39:07;100923.44;;;12.08;89.18
60715;BME280;46564;53.096;8.246;2023-08-08T01:44:13;100917.25;;;12.01;89.34
60715;BME280;46564;53.096;8.246;2023-08-08T01:49:14;100910.16;;;11.96;89.60
60715;BME280;46564;53.096;8.246;2023-08-08T01:54:16;100905.75;;;11.93;89.75
60715;BME280;46564;53.096;8.246;2023-08-08T01:59:18;100900.44;;;11.92;89.87
60715;BME280;46564;53.096;8.246;2023-08-08T02:04:20;100902.19;;;11.91;90.14
60715;BME280;46564;53.096;8.246;2023-08-08T02:09:22;100896.94;;;11.90;90.18
60715;BME280;46564;53.096;8.246;2023-08-08T02:14:23;100905.56;;;11.82;90.50
60715;BME280;46564;53.096;8.246;2023-08-08T02:19:25;100900.28;;;11.79;90.53
60715;BME280;46564;53.096;8.246;2023-08-08T02:24:27;100898.50;;;11.78;90.63
60715;BME280;46564;53.096;8.246;2023-08-08T02:29:28;100881.91;;;11.78;91.14
60715;BME280;46564;53.096;8.246;2023-08-08T02:34:30;100867.09;;;11.81;91.32
60715;BME280;46564;53.096;8.246;2023-08-08T02:39:31;100863.59;;;11.82;91.42
60715;BME280;46564;53.096;8.246;2023-08-08T02:44:33;100865.41;;;11.87;91.64
60715;BME280;46564;53.096;8.246;2023-08-08T02:49:34;100858.38;;;11.85;91.72
60715;BME280;46564;53.096;8.246;2023-08-08T02:54:36;100856.72;;;11.91;91.87
60715;BME280;46564;53.096;8.246;2023-08-08T02:59:37;100847.19;;;11.96;92.14
60715;BME280;46564;53.096;8.246;2023-08-08T03:04:39;100851.63;;;12.00;92.15
60715;BME280;46564;53.096;8.246;2023-08-08T03:09:40;100852.53;;;12.05;92.20
60715;BME280;46564;53.096;8.246;2023-08-08T03:14:42;100846.53;;;12.15;92.25
60715;BME280;46564;53.096;8.246;2023-08-08T03:19:43;100839.56;;;12.17;92.32
60715;BME280;46564;53.096;8.246;2023-08-08T03:24:45;100828.22;;;12.20;92.40
60715;BME280;46564;53.096;8.246;2023-08-08T03:29:46;100828.22;;;12.22;92.25
60715;BME280;46564;53.096;8.246;2023-08-08T03:34:48;100821.31;;;12.27;92.38
60715;BME280;46564;53.096;8.246;2023-08-08T03:39:50;100816.06;;;12.30;92.48
60715;BME280;46564;53.096;8.246;2023-08-08T03:44:52;100823.09;;;12.34;92.31
60715;BME280;46564;53.096;8.246;2023-08-08T03:49:55;100822.25;;;12.35;92.30
60715;BME280;46564;53.096;8.246;2023-08-08T03:54:57;100819.66;;;12.40;92.50
60715;BME280;46564;53.096;8.246;2023-08-08T03:59:58;100814.41;;;12.40;92.44
60715;BME280;46564;53.096;8.246;2023-08-08T04:05:00;100817.06;;;12.41;92.39
60715;BME280;46564;53.096;8.246;2023-08-08T04:10:02;100804.84;;;12.43;92.64
60715;BME280;46564;53.096;8.246;2023-08-08T04:15:04;100805.72;;;12.47;92.79
60715;BME280;46564;53.096;8.246;2023-08-08T04:20:06;100804.91;;;12.51;92.73
60715;BME280;46564;53.096;8.246;2023-08-08T04:25:08;100796.16;;;12.53;92.66
60715;BME280;46564;53.096;8.246;2023-08-08T04:30:11;100793.59;;;12.57;92.84
60715;BME280;46564;53.096;8.246;2023-08-08T04:35:13;100798.88;;;12.60;92.47
60715;BME280;46564;53.096;8.246;2023-08-08T04:40:14;100804.16;;;12.66;92.60
60715;BME280;46564;53.096;8.246;2023-08-08T04:45:16;100798.09;;;12.73;92.64
60715;BME280;46564;53.096;8.246;2023-08-08T04:50:17;100792.88;;;12.78;92.52
60715;BME280;46564;53.096;8.246;2023-08-08T04:55:19;100783.25;;;12.78;92.41
60715;BME280;46564;53.096;8.246;2023-08-08T05:00:20;100785.00;;;12.78;92.33
60715;BME280;46564;53.096;8.246;2023-08-08T05:05:22;100783.22;;;12.73;92.54
60715;BME280;46564;53.096;8.246;2023-08-08T05:10:24;100783.22;;;12.73;92.09
60715;BME280;46564;53.096;8.246;2023-08-08T05:15:25;100788.47;;;12.73;92.20
60715;BME280;46564;53.096;8.246;2023-08-08T05:20:27;100789.34;;;12.77;92.11
60715;BME280;46564;53.096;8.246;2023-08-08T05:25:29;100789.38;;;12.80;92.14
60715;BME280;46564;53.096;8.246;2023-08-08T05:30:30;100790.34;;;12.88;92.25
60715;BME280;46564;53.096;8.246;2023-08-08T05:35:32;100794.84;;;13.08;92.20
60715;BME280;46564;53.096;8.246;2023-08-08T05:40:35;100786.16;;;13.18;92.02
60715;BME280;46564;53.096;8.246;2023-08-08T05:45:36;100785.28;;;13.22;91.82
60715;BME280;46564;53.096;8.246;2023-08-08T05:50:38;100787.16;;;13.34;91.68
60715;BME280;46564;53.096;8.246;2023-08-08T05:55:41;100784.63;;;13.47;91.19
60715;BME280;46564;53.096;8.246;2023-08-08T06:00:42;100779.41;;;13.59;90.73
60715;BME280;46564;53.096;8.246;2023-08-08T06:05:44;100767.16;;;13.72;90.23
60715;BME280;46564;53.096;8.246;2023-08-08T06:10:45;100770.75;;;13.86;89.84
60715;BME280;46564;53.096;8.246;2023-08-08T06:15:47;100763.72;;;13.97;89.44
60715;BME280;46564;53.096;8.246;2023-08-08T06:20:48;100774.31;;;14.14;89.12
60715;BME280;46564;53.096;8.246;2023-08-08T06:25:50;100779.63;;;14.28;88.59
60715;BME280;46564;53.096;8.246;2023-08-08T06:30:51;100780.53;;;14.43;87.79
60715;BME280;46564;53.096;8.246;2023-08-08T06:35:55;100794.59;;;14.68;87.01
60715;BME280;46564;53.096;8.246;2023-08-08T06:40:56;100806.03;;;14.87;86.05
60715;BME280;46564;53.096;8.246;2023-08-08T06:45:58;100797.25;;;15.00;85.07
60715;BME280;46564;53.096;8.246;2023-08-08T06:50:59;100788.47;;;15.05;84.42
60715;BME280;46564;53.096;8.246;2023-08-08T06:56:01;100784.03;;;15.17;83.76
60715;BME280;46564;53.096;8.246;2023-08-08T07:01:05;100781.38;;;15.19;83.02
60715;BME280;46564;53.096;8.246;2023-08-08T07:06:07;100790.19;;;15.07;82.74
60715;BME280;46564;53.096;8.246;2023-08-08T07:11:09;100793.72;;;15.08;82.91
60715;BME280;46564;53.096;8.246;2023-08-08T07:16:10;100796.38;;;14.98;82.60
60715;BME280;46564;53.096;8.246;2023-08-08T07:21:12;100791.09;;;14.97;82.31
60715;BME280;46564;53.096;8.246;2023-08-08T07:26:13;100789.31;;;15.11;82.35
60715;BME280;46564;53.096;8.246;2023-08-08T07:31:15;100771.69;;;15.32;81.97
60715;BME280;46564;53.096;8.246;2023-08-08T07:36:16;100772.53;;;15.37;81.61
60715;BME280;46564;53.096;8.246;2023-08-08T07:41:18;100768.13;;;15.47;81.27
60715;BME280;46564;53.096;8.246;2023-08-08T07:46:20;100766.34;;;15.52;80.72
60715;BME280;46564;53.096;8.246;2023-08-08T07:51:22;100760.16;;;15.58;80.24
60715;BME280;46564;53.096;8.246;2023-08-08T07:56:26;100767.13;;;15.76;79.65
60715;BME280;46564;53.096;8.246;2023-08-08T08:01:28;100754.44;;;16.42;78.86
60715;BME280;46564;53.096;8.246;2023-08-08T08:06:31;100758.38;;;16.98;77.38
60715;BME280;46564;53.096;8.246;2023-08-08T08:11:32;57128.34;;;-147.53;100.00
60715;BME280;46564;53.096;8.246;2023-08-08T08:16:34;57128.34;;;-147.53;100.00
60715;BME280;46564;53.096;8.246;2023-08-08T08:21:36;57128.34;;;-147.53;100.00
60715;BME280;46564;53.096;8.246;2023-08-08T08:26:37;57128.34;;;-147.53;100.00
60715;BME280;46564;53.096;8.246;2023-08-08T08:31:39;57128.34;;;-147.53;100.00
60715;BME280;46564;53.096;8.246;2023-08-08T08:36:40;57128.34;;;-147.53;100.00
60715;BME280;46564;53.096;8.246;2023-08-08T08:41:45;57128.34;;;-147.53;100.00
60715;BME280;46564;53.096;8.246;2023-08-08T08:46:50;100750.72;;;18.20;69.63
60715;BME280;46564;53.096;8.246;2023-08-08T08:52:01;100745.34;;;18.27;68.21
60715;BME280;46564;53.096;8.246;2023-08-08T08:57:05;100743.97;;;18.59;68.25
60715;BME280;46564;53.096;8.246;2023-08-08T09:02:07;100738.59;;;18.63;67.58
60715;BME280;46564;53.096;8.246;2023-08-08T09:07:09;100747.72;;;18.45;66.72
60715;BME280;46564;53.096;8.246;2023-08-08T09:12:11;100741.75;;;18.84;66.19
60715;BME280;46564;53.096;8.246;2023-08-08T09:17:13;100723.94;;;18.92;65.14
60715;BME280;46564;53.096;8.246;2023-08-08T09:22:15;100732.41;;;19.13;64.49
60715;BME280;46564;53.096;8.246;2023-08-08T09:27:17;100742.00;;;18.68;63.90
60715;BME280;46564;53.096;8.246;2023-08-08T09:32:18;100722.31;;;18.32;64.24
60715;BME280;46564;53.096;8.246;2023-08-08T09:37:19;100730.19;;;18.36;65.05
60715;BME280;46564;53.096;8.246;2023-08-08T09:42:21;100748.72;;;18.38;65.44
60715;BME280;46564;53.096;8.246;2023-08-08T09:47:23;100730.75;;;18.55;64.74
60715;BME280;46564;53.096;8.246;2023-08-08T09:52:29;100732.94;;;18.29;63.83
60715;BME280;46564;53.096;8.246;2023-08-08T09:57:39;100738.56;;;18.07;64.19
60715;BME280;46564;53.096;8.246;2023-08-08T10:02:43;100734.19;;;18.61;64.38
60715;BME280;46564;53.096;8.246;2023-08-08T10:07:49;100737.00;;;18.51;63.28
60715;BME280;46564;53.096;8.246;2023-08-08T10:12:54;100732.53;;;18.53;63.67
60715;BME280;46564;53.096;8.246;2023-08-08T10:18:01;100725.47;;;18.55;63.79
60715;BME280;46564;53.096;8.246;2023-08-08T10:23:06;100739.47;;;18.08;62.93
60715;BME280;46564;53.096;8.246;2023-08-08T10:28:12;100739.47;;;18.08;62.93
60715;BME280;46564;53.096;8.246;2023-08-08T10:33:41;100742.44;;;17.80;67.58
60715;BME280;46564;53.096;8.246;2023-08-08T10:38:47;100744.06;;;17.93;68.34
60715;BME280;46564;53.096;8.246;2023-08-08T10:43:54;100748.16;;;17.47;68.93
60715;BME280;46564;53.096;8.246;2023-08-08T10:48:58;100741.91;;;17.53;68.99
60715;BME280;46564;53.096;8.246;2023-08-08T10:54:04;100736.41;;;18.34;69.12
60715;BME280;46564;53.096;8.246;2023-08-08T10:59:15;100726.75;;;18.83;68.46
60715;BME280;46564;53.096;8.246;2023-08-08T11:04:21;100728.34;;;19.40;67.37
60715;BME280;46564;53.096;8.246;2023-08-08T11:09:24;100714.22;;;19.80;66.28
60715;BME280;46564;53.096;8.246;2023-08-08T11:14:25;100706.06;;;19.47;65.51
60715;BME280;46564;53.096;8.246;2023-08-08T11:19:27;100711.09;;;19.17;64.76
60715;BME280;46564;53.096;8.246;2023-08-08T11:24:34;100710.06;;;18.76;64.85
60715;BME280;46564;53.096;8.246;2023-08-08T11:29:36;100743.47;;;18.35;64.87
60715;BME280;46564;53.096;8.246;2023-08-08T11:34:37;100773.88;;;17.35;66.98
60715;BME280;46564;53.096;8.246;2023-08-08T11:39:39;100773.88;;;17.35;66.98
60715;BME280;46564;53.096;8.246;2023-08-08T11:44:41;100776.19;;;14.79;76.35
60715;BME280;46564;53.096;8.246;2023-08-08T11:49:42;100769.13;;;14.58;78.83
60715;BME280;46564;53.096;8.246;2023-08-08T11:54:44;100758.63;;;14.61;80.21
60715;BME280;46564;53.096;8.246;2023-08-08T11:59:48;100757.72;;;14.65;81.45
60715;BME280;46564;53.096;8.246;2023-08-08T12:04:50;100752.44;;;14.85;82.39
60715;BME280;46564;53.096;8.246;2023-08-08T12:09:52;100746.25;;;15.09;82.94
60715;BME280;46564;53.096;8.246;2023-08-08T12:14:54;100747.78;;;15.83;83.57
60715;BME280;46564;53.096;8.246;2023-08-08T12:20:00;100730.94;;;16.01;83.36
60715;BME280;46564;53.096;8.246;2023-08-08T12:25:02;100733.22;;;16.52;82.59
60715;BME280;46564;53.096;8.246;2023-08-08T12:30:07;100728.44;;;16.95;80.38
60715;BME280;46564;53.096;8.246;2023-08-08T12:35:08;100723.66;;;17.30;78.19
60715;BME280;46564;53.096;8.246;2023-08-08T12:40:11;100722.28;;;17.70;75.87
60715;BME280;46564;53.096;8.246;2023-08-08T12:45:13;100723.50;;;18.11;73.66
60715;BME280;46564;53.096;8.246;2023-08-08T12:50:15;100728.53;;;18.29;70.80
60715;BME280;46564;53.096;8.246;2023-08-08T12:55:16;100734.63;;;18.36;68.55
60715;BME280;46564;53.096;8.246;2023-08-08T13:00:18;100738.94;;;18.40;67.00
60715;BME280;46564;53.096;8.246;2023-08-08T13:05:20;100737.78;;;18.57;65.86
60715;BME280;46564;53.096;8.246;2023-08-08T13:10:21;100735.84;;;18.68;65.80
60715;BME280;46564;53.096;8.246;2023-08-08T13:15:23;100728.47;;;18.84;64.48
60715;BME280;46564;53.096;8.246;2023-08-08T13:20:25;100733.81;;;18.82;63.04
60715;BME280;46564;53.096;8.246;2023-08-08T13:25:27;100731.72;;;19.03;62.25
60715;BME280;46564;53.096;8.246;2023-08-08T13:30:29;100742.59;;;19.34;61.84
60715;BME280;46564;53.096;8.246;2023-08-08T13:35:31;100758.84;;;19.63;60.79
60715;BME280;46564;53.096;8.246;2023-08-08T13:40:33;100760.00;;;19.04;60.56
60715;BME280;46564;53.096;8.246;2023-08-08T13:45:35;100755.88;;;18.30;62.51
60715;BME280;46564;53.096;8.246;2023-08-08T13:50:37;100758.25;;;17.86;63.96
60715;BME280;46564;53.096;8.246;2023-08-08T13:55:39;100769.00;;;17.75;65.16
60715;BME280;46564;53.096;8.246;2023-08-08T14:00:40;100777.03;;;17.67;66.45
60715;BME280;46564;53.096;8.246;2023-08-08T14:05:42;100805.25;;;17.72;65.72
60715;BME280;46564;53.096;8.246;2023-08-08T14:10:44;100797.16;;;17.82;63.95
60715;BME280;46564;53.096;8.246;2023-08-08T14:15:46;100783.34;;;18.27;62.69
60715;BME280;46564;53.096;8.246;2023-08-08T14:20:47;100784.75;;;18.50;62.07
60715;BME280;46564;53.096;8.246;2023-08-08T14:25:49;100798.09;;;18.45;61.67
60715;BME280;46564;53.096;8.246;2023-08-08T14:30:51;100795.19;;;18.61;61.98
60715;BME280;46564;53.096;8.246;2023-08-08T14:35:52;100786.00;;;18.26;62.12
60715;BME280;46564;53.096;8.246;2023-08-08T14:40:54;100788.09;;;18.02;62.35
60715;BME280;46564;53.096;8.246;2023-08-08T14:45:56;100797.97;;;17.86;62.61
60715;BME280;46564;53.096;8.246;2023-08-08T14:51:01;100809.97;;;18.16;63.95
60715;BME280;46564;53.096;8.246;2023-08-08T14:56:03;100806.31;;;18.25;62.94
60715;BME280;46564;53.096;8.246;2023-08-08T15:01:05;100799.16;;;18.33;62.36
60715;BME280;46564;53.096;8.246;2023-08-08T15:06:06;100826.97;;;18.64;61.35
60715;BME280;46564;53.096;8.246;2023-08-08T15:11:08;100812.97;;;18.52;60.35
60715;BME280;46564;53.096;8.246;2023-08-08T15:16:09;100825.75;;;18.26;60.20
60715;BME280;46564;53.096;8.246;2023-08-08T15:21:11;100822.97;;;18.35;59.79
60715;BME280;46564;53.096;8.246;2023-08-08T15:26:12;100824.16;;;18.73;60.42
60715;BME280;46564;53.096;8.246;2023-08-08T15:31:14;100835.47;;;18.84;59.57
60715;BME280;46564;53.096;8.246;2023-08-08T15:36:16;100843.72;;;18.64;59.15
60715;BME280;46564;53.096;8.246;2023-08-08T15:41:17;100854.63;;;18.46;58.59
60715;BME280;46564;53.096;8.246;2023-08-08T15:46:19;100847.69;;;18.37;58.25
60715;BME280;46564;53.096;8.246;2023-08-08T15:51:20;100852.25;;;18.27;58.87
60715;BME280;46564;53.096;8.246;2023-08-08T15:56:22;100852.25;;;18.27;58.87
60715;BME280;46564;53.096;8.246;2023-08-08T16:01:23;100852.25;;;18.27;58.87
60715;BME280;46564;53.096;8.246;2023-08-08T16:06:25;100856.78;;;17.35;64.72
60715;BME280;46564;53.096;8.246;2023-08-08T16:11:27;100848.69;;;17.55;64.95
60715;BME280;46564;53.096;8.246;2023-08-08T16:16:28;100844.97;;;17.70;64.07
60715;BME280;46564;53.096;8.246;2023-08-08T16:21:30;100858.88;;;17.88;62.87
60715;BME280;46564;53.096;8.246;2023-08-08T16:26:31;100860.44;;;18.07;62.73
60715;BME280;46564;53.096;8.246;2023-08-08T16:31:33;100864.47;;;18.37;62.07
60715;BME280;46564;53.096;8.246;2023-08-08T16:36:36;100872.50;;;18.30;61.37
60715;BME280;46564;53.096;8.246;2023-08-08T16:41:42;100868.19;;;18.24;61.00
60715;BME280;46564;53.096;8.246;2023-08-08T16:46:43;100887.31;;;17.73;60.48
60715;BME280;46564;53.096;8.246;2023-08-08T16:51:44;100887.84;;;17.18;60.80
60715;BME280;46564;53.096;8.246;2023-08-08T16:56:46;100880.03;;;17.02;60.92
60715;BME280;46564;53.096;8.246;2023-08-08T17:01:48;100886.19;;;17.04;61.30
60715;BME280;46564;53.096;8.246;2023-08-08T17:06:50;100887.78;;;17.25;60.27
60715;BME280;46564;53.096;8.246;2023-08-08T17:11:52;100885.25;;;17.13;59.01
60715;BME280;46564;53.096;8.246;2023-08-08T17:16:54;100888.16;;;16.74;59.71
60715;BME280;46564;53.096;8.246;2023-08-08T17:21:55;100894.94;;;17.12;59.64
60715;BME280;46564;53.096;8.246;2023-08-08T17:27:07;100893.22;;;17.05;58.75
60715;BME280;46564;53.096;8.246;2023-08-08T17:32:09;100886.28;;;16.89;58.86
60715;BME280;46564;53.096;8.246;2023-08-08T17:37:10;100889.84;;;16.88;58.58
60715;BME280;46564;53.096;8.246;2023-08-08T17:42:12;100886.53;;;16.49;58.75
60715;BME280;46564;53.096;8.246;2023-08-08T17:47:13;100898.09;;;16.31;59.43
60715;BME280;46564;53.096;8.246;2023-08-08T17:52:14;100895.50;;;16.12;60.03
60715;BME280;46564;53.096;8.246;2023-08-08T17:57:16;100897.31;;;16.02;60.67
60715;BME280;46564;53.096;8.246;2023-08-08T18:02:17;100889.41;;;15.98;61.20
60715;BME280;46564;53.096;8.246;2023-08-08T18:07:19;100893.84;;;15.88;61.70
60715;BME280;46564;53.096;8.246;2023-08-08T18:12:20;100888.59;;;15.79;61.93
60715;BME280;46564;53.096;8.246;2023-08-08T18:17:22;100892.97;;;15.73;62.14
60715;BME280;46564;53.096;8.246;2023-08-08T18:22:24;100900.94;;;15.64;62.26
60715;BME280;46564;53.096;8.246;2023-08-08T18:27:25;100902.69;;;15.59;62.44
60715;BME280;46564;53.096;8.246;2023-08-08T18:32:27;100902.69;;;15.50;62.56
60715;BME280;46564;53.096;8.246;2023-08-08T18:37:28;100910.63;;;15.37;63.17
60715;BME280;46564;53.096;8.246;2023-08-08T18:42:30;100898.34;;;15.23;64.03
60715;BME280;46564;53.096;8.246;2023-08-08T18:47:31;100906.25;;;15.09;64.25
60715;BME280;46564;53.096;8.246;2023-08-08T18:52:33;100903.59;;;14.96;64.72
60715;BME280;46564;53.096;8.246;2023-08-08T18:57:34;100902.72;;;14.83;65.39
60715;BME280;46564;53.096;8.246;2023-08-08T19:02:35;100899.16;;;14.67;65.80
60715;BME280;46564;53.096;8.246;2023-08-08T19:07:37;100900.88;;;14.55;66.33
60715;BME280;46564;53.096;8.246;2023-08-08T19:12:39;100894.66;;;14.39;66.51
60715;BME280;46564;53.096;8.246;2023-08-08T19:17:40;100903.38;;;14.24;66.94
60715;BME280;46564;53.096;8.246;2023-08-08T19:22:56;100914.75;;;14.13;67.36
60715;BME280;46564;53.096;8.246;2023-08-08T19:27:58;100894.50;;;14.02;67.59
60715;BME280;46564;53.096;8.246;2023-08-08T19:32:59;100900.59;;;13.93;68.21
60715;BME280;46564;53.096;8.246;2023-08-08T19:38:01;100900.56;;;13.84;68.73
60715;BME280;46564;53.096;8.246;2023-08-08T19:43:02;100908.38;;;13.71;69.28
60715;BME280;46564;53.096;8.246;2023-08-08T19:48:04;100907.41;;;13.58;69.60
60715;BME280;46564;53.096;8.246;2023-08-08T19:53:05;100916.16;;;13.48;70.03
60715;BME280;46564;53.096;8.246;2023-08-08T19:58:07;100916.03;;;13.36;70.51
60715;BME280;46564;53.096;8.246;2023-08-08T20:03:09;100916.84;;;13.27;70.77
60715;BME280;46564;53.096;8.246;2023-08-08T20:08:10;100912.41;;;13.23;70.98
60715;BME280;46564;53.096;8.246;2023-08-08T20:13:12;100916.69;;;13.12;71.28
60715;BME280;46564;53.096;8.246;2023-08-08T20:18:13;100915.72;;;13.02;71.43
60715;BME280;46564;53.096;8.246;2023-08-08T20:23:15;100916.56;;;12.99;71.74
60715;BME280;46564;53.096;8.246;2023-08-08T20:28:16;100910.41;;;12.94;72.01
60715;BME280;46564;53.096;8.246;2023-08-08T20:33:17;100921.75;;;12.88;72.44
60715;BME280;46564;53.096;8.246;2023-08-08T20:38:19;100926.91;;;12.81;72.37
60715;BME280;46564;53.096;8.246;2023-08-08T20:43:20;100936.44;;;12.72;72.60
60715;BME280;46564;53.096;8.246;2023-08-08T20:48:22;100939.84;;;12.64;72.73
60715;BME280;46564;53.096;8.246;2023-08-08T20:53:23;100939.81;;;12.61;73.12
60715;BME280;46564;53.096;8.246;2023-08-08T20:58:25;100953.75;;;12.53;73.44
60715;BME280;46564;53.096;8.246;2023-08-08T21:03:26;100944.94;;;12.47;73.53
60715;BME280;46564;53.096;8.246;2023-08-08T21:08:28;100946.63;;;12.40;73.86
60715;BME280;46564;53.096;8.246;2023-08-08T21:13:35;100948.25;;;12.33;74.36
60715;BME280;46564;53.096;8.246;2023-08-08T21:18:37;100945.53;;;12.26;74.76
60715;BME280;46564;53.096;8.246;2023-08-08T21:23:38;100954.22;;;12.20;75.16
60715;BME280;46564;53.096;8.246;2023-08-08T21:28:40;100956.78;;;12.15;75.53
60715;BME280;46564;53.096;8.246;2023-08-08T21:33:41;100957.56;;;12.10;75.76
60715;BME280;46564;53.096;8.246;2023-08-08T21:38:43;100949.66;;;12.05;76.12
60715;BME280;46564;53.096;8.246;2023-08-08T21:43:44;100935.59;;;12.00;76.32
60715;BME280;46564;53.096;8.246;2023-08-08T21:48:46;100940.75;;;11.94;76.33
60715;BME280;46564;53.096;8.246;2023-08-08T21:53:47;100930.16;;;11.88;76.92
60715;BME280;46564;53.096;8.246;2023-08-08T21:58:48;100934.41;;;11.81;77.28
60715;BME280;46564;53.096;8.246;2023-08-08T22:03:50;100933.50;;;11.77;77.62
60715;BME280;46564;53.096;8.246;2023-08-08T22:08:52;100926.38;;;11.70;78.14
60715;BME280;46564;53.096;8.246;2023-08-08T22:13:54;100925.31;;;11.57;78.26
60715;BME280;46564;53.096;8.246;2023-08-08T22:18:55;100933.06;;;11.49;78.63
60715;BME280;46564;53.096;8.246;2023-08-08T22:23:57;100925.94;;;11.41;79.10
60715;BME280;46564;53.096;8.246;2023-08-08T22:28:58;100926.72;;;11.34;79.50
60715;BME280;46564;53.096;8.246;2023-08-08T22:34:00;100924.06;;;11.32;80.11
60715;BME280;46564;53.096;8.246;2023-08-08T22:39:01;100924.03;;;11.29;80.54
60715;BME280;46564;53.096;8.246;2023-08-08T22:44:03;100935.25;;;11.22;80.75
60715;BME280;46564;53.096;8.246;2023-08-08T22:49:04;100932.53;;;11.16;80.92
60715;BME280;46564;53.096;8.246;2023-08-08T22:54:06;100934.06;;;11.04;81.32
60715;BME280;46564;53.096;8.246;2023-08-08T22:59:07;100938.38;;;11.01;81.61
60715;BME280;46564;53.096;8.246;2023-08-08T23:04:08;100938.38;;;11.01;82.30
60715;BME280;46564;53.096;8.246;2023-08-08T23:09:10;100933.16;;;11.01;82.52
60715;BME280;46564;53.096;8.246;2023-08-08T23:14:11;100934.84;;;10.99;82.88
60715;BME280;46564;53.096;8.246;2023-08-08T23:19:13;100931.31;;;10.96;83.23
60715;BME280;46564;53.096;8.246;2023-08-08T23:24:14;100927.63;;;10.87;83.47
60715;BME280;46564;53.096;8.246;2023-08-08T23:29:16;100937.16;;;10.82;83.66
60715;BME280;46564;53.096;8.246;2023-08-08T23:34:17;100936.16;;;10.73;84.07
60715;BME280;46564;53.096;8.246;2023-08-08T23:39:19;100931.69;;;10.69;84.21
60715;BME280;46564;53.096;8.246;2023-08-08T23:44:20;100931.59;;;10.63;84.61
60715;BME280;46564;53.096;8.246;2023-08-08T23:49:21;100926.34;;;10.63;84.43
60715;BME280;46564;53.096;8.246;2023-08-08T23:54:23;100930.63;;;10.59;85.24
60715;BME280;46564;53.096;8.246;2023-08-08T23:59:24;100930.59;;;10.58;85.66
